Terminal Aerodrome Forecast
Issued by NWS Boston, MA

Home | Current Version | Previous Version | Text Only | Print | Product List | Glossary On
Versions: 1 2 3 4 5 6 7 8 9 10 11 12 13 14 15 16 17 18 19 20 21 22 23 24 25 26 27 28 29 30 31 32 33 34 35 36 37 38
000
FTUS41 KBOX 020537
TAFORH
TAF
KORH 020537Z 0206/0306 24005KT P6SM BKN150
     FM021200 23005KT P6SM -SHRA OVC050
     FM021400 14004KT P6SM -SHRA OVC030
     FM021800 10004KT P6SM BKN030
     FM021900 10004KT P6SM BKN060=

USA.gov is the U.S. government's official web portal to all federal, state and local government web resources and services.